createdAt,value
2022-07-28T00:01:24.809Z,16.70
2022-07-28T00:06:26.626Z,16.60
2022-07-28T00:11:28.454Z,16.60
2022-07-28T00:16:30.305Z,16.60
2022-07-28T00:21:32.172Z,16.50
2022-07-28T00:26:34.590Z,16.50
2022-07-28T00:31:36.473Z,16.50
2022-07-28T00:36:38.819Z,16.40
2022-07-28T00:41:42.033Z,16.30
2022-07-28T00:46:45.212Z,16.30
2022-07-28T00:51:48.414Z,16.30
2022-07-28T00:56:50.282Z,16.30
2022-07-28T01:01:53.550Z,16.20
2022-07-28T01:07:17.650Z,16.10
2022-07-28T01:12:53.662Z,16.10
2022-07-28T01:18:11.382Z,16.20
2022-07-28T01:23:45.435Z,16.20
2022-07-28T01:29:16.629Z,16.20
2022-07-28T01:34:27.428Z,16.10
2022-07-28T01:39:33.911Z,15.90
2022-07-28T01:44:41.168Z,15.90
2022-07-28T01:49:45.429Z,16.00
2022-07-28T01:54:49.566Z,15.90
2022-07-28T01:59:53.317Z,15.80
2022-07-28T02:04:57.272Z,15.80
2022-07-28T02:10:00.102Z,15.70
2022-07-28T02:15:02.906Z,15.70
2022-07-28T02:20:06.894Z,15.60
2022-07-28T02:25:09.298Z,15.60
2022-07-28T02:30:15.938Z,15.40
2022-07-28T02:35:32.006Z,15.30
2022-07-28T02:40:36.928Z,15.30
2022-07-28T02:45:41.673Z,15.20
2022-07-28T02:50:45.405Z,15.10
2022-07-28T02:55:49.236Z,15.20
2022-07-28T03:00:53.082Z,15.20
2022-07-28T03:05:55.446Z,15.20
2022-07-28T03:11:12.130Z,15.00
2022-07-28T03:16:14.812Z,15.00
2022-07-28T03:21:16.657Z,14.90
2022-07-28T03:26:32.793Z,14.90
2022-07-28T03:31:37.205Z,14.90
2022-07-28T03:36:44.253Z,14.60
2022-07-28T03:41:47.498Z,14.60
2022-07-28T03:46:49.398Z,14.60
2022-07-28T03:51:51.482Z,14.60
2022-07-28T03:56:53.345Z,14.50
2022-07-28T04:01:56.392Z,14.50
2022-07-28T04:06:58.382Z,14.30
2022-07-28T04:12:00.256Z,14.40
2022-07-28T04:17:02.248Z,14.30
2022-07-28T04:22:04.192Z,14.30
2022-07-28T04:27:07.182Z,14.50
2022-07-28T04:32:09.002Z,14.50
2022-07-28T04:37:10.886Z,14.60
2022-07-28T04:42:12.710Z,14.60
2022-07-28T04:47:14.652Z,14.60
2022-07-28T04:52:16.736Z,14.60
2022-07-28T04:57:18.626Z,14.80
2022-07-28T05:02:23.419Z,14.80
2022-07-28T05:07:25.228Z,15.10
2022-07-28T05:12:27.082Z,15.40
2022-07-28T05:17:28.925Z,15.60
2022-07-28T05:22:45.017Z,15.90
2022-07-28T05:27:48.222Z,16.40
2022-07-28T05:32:51.159Z,17.60
2022-07-28T05:37:53.039Z,18.40
2022-07-28T05:42:54.960Z,18.80
2022-07-28T05:47:56.794Z,19.20
2022-07-28T05:52:58.645Z,20.20
2022-07-28T05:58:00.555Z,20.50
2022-07-28T06:03:02.458Z,21.50
2022-07-28T06:08:04.595Z,22.60
2022-07-28T06:13:06.687Z,22.90
2022-07-28T06:18:08.621Z,22.70
2022-07-28T06:23:11.310Z,22.30
2022-07-28T06:28:13.338Z,22.00
2022-07-28T06:33:17.385Z,21.70
2022-07-28T06:38:20.688Z,21.60
2022-07-28T06:43:22.512Z,21.30
2022-07-28T06:48:28.739Z,21.10
2022-07-28T06:53:33.935Z,21.10
2022-07-28T06:58:36.466Z,21.10
2022-07-28T07:03:38.434Z,21.30
2022-07-28T07:08:40.379Z,21.40
2022-07-28T07:13:43.250Z,21.70
2022-07-28T07:18:45.500Z,21.80
2022-07-28T07:23:47.855Z,21.90
2022-07-28T07:28:49.766Z,22.10
2022-07-28T07:33:51.614Z,22.20
2022-07-28T07:38:53.422Z,22.30
2022-07-28T07:43:55.625Z,22.20
2022-07-28T07:48:57.633Z,22.50
2022-07-28T07:53:59.466Z,22.60
2022-07-28T07:59:01.378Z,22.80
2022-07-28T08:04:03.464Z,23.00
2022-07-28T08:09:05.364Z,23.00
2022-07-28T08:14:07.281Z,23.20
2022-07-28T08:19:09.136Z,23.20
2022-07-28T08:24:11.430Z,23.30
2022-07-28T08:29:19.705Z,23.50
2022-07-28T08:34:31.419Z,23.70
2022-07-28T08:39:36.317Z,23.80
2022-07-28T08:44:57.491Z,23.90
2022-07-28T08:50:00.067Z,24.00
2022-07-28T08:55:04.927Z,24.20
2022-07-28T09:00:08.417Z,24.30
2022-07-28T09:05:10.549Z,24.40
2022-07-28T09:10:13.855Z,24.40
2022-07-28T09:15:15.991Z,24.60
2022-07-28T09:20:18.306Z,24.80
2022-07-28T09:25:29.394Z,24.70
2022-07-28T09:30:33.733Z,25.00
2022-07-28T09:35:46.452Z,25.00
2022-07-28T09:41:03.183Z,25.00
2022-07-28T09:46:08.156Z,25.00
2022-07-28T09:51:14.373Z,24.90
2022-07-28T09:56:16.939Z,24.90
2022-07-28T10:01:22.167Z,25.20
2022-07-28T10:06:35.906Z,25.50
2022-07-28T10:11:41.715Z,25.70
2022-07-28T10:16:46.907Z,25.40
2022-07-28T10:21:52.323Z,25.40
2022-07-28T10:26:57.796Z,25.50
2022-07-28T10:32:05.641Z,25.60
2022-07-28T10:37:13.198Z,25.80
2022-07-28T10:42:15.138Z,26.00
2022-07-28T10:47:19.713Z,26.10
2022-07-28T10:52:46.772Z,26.20
2022-07-28T10:58:14.420Z,26.40
2022-07-28T11:03:35.181Z,26.50
2022-07-28T11:08:37.378Z,26.80
2022-07-28T11:13:41.036Z,26.80
2022-07-28T11:19:40.716Z,27.00
2022-07-28T11:25:21.098Z,27.10
2022-07-28T11:30:32.946Z,26.70
2022-07-28T11:35:41.073Z,26.90
2022-07-28T11:40:44.339Z,27.00
2022-07-28T11:45:54.095Z,27.00
2022-07-28T11:51:04.088Z,26.90
2022-07-28T11:56:08.482Z,26.80
2022-07-28T12:01:17.332Z,26.90
2022-07-28T12:06:26.187Z,27.10
2022-07-28T12:11:36.578Z,27.20
2022-07-28T12:16:40.493Z,27.40
2022-07-28T12:21:47.534Z,27.60
2022-07-28T12:26:50.673Z,27.90
2022-07-28T12:32:04.983Z,28.10
2022-07-28T12:37:12.218Z,28.00
2022-07-28T12:42:14.366Z,28.00
2022-07-28T12:47:24.766Z,28.10
2022-07-28T12:52:26.674Z,27.90
2022-07-28T12:57:52.710Z,27.70
2022-07-28T13:02:56.723Z,27.30
2022-07-28T13:08:02.652Z,27.10
2022-07-28T13:13:06.522Z,27.00
2022-07-28T13:18:08.857Z,27.20
2022-07-28T13:23:11.065Z,27.40
2022-07-28T13:28:26.347Z,27.10
2022-07-28T13:33:28.766Z,26.90
2022-07-28T13:38:31.121Z,26.80
2022-07-28T13:43:36.149Z,26.80
2022-07-28T13:48:57.905Z,27.00
2022-07-28T13:54:02.244Z,27.10
2022-07-28T13:59:10.522Z,27.00
2022-07-28T14:04:17.512Z,26.80
2022-07-28T14:09:21.327Z,27.00
2022-07-28T14:14:25.403Z,27.20
2022-07-28T14:19:39.577Z,27.20
2022-07-28T14:24:42.784Z,27.40
2022-07-28T14:29:45.651Z,27.50
2022-07-28T14:34:47.759Z,27.50
2022-07-28T14:39:49.642Z,27.50
2022-07-28T14:44:51.501Z,27.30
2022-07-28T14:49:57.097Z,27.10
2022-07-28T14:55:00.405Z,26.90
2022-07-28T15:00:02.446Z,26.90
2022-07-28T15:05:05.438Z,26.80
2022-07-28T15:10:07.940Z,26.60
2022-07-28T15:15:10.687Z,26.40
2022-07-28T15:20:12.794Z,26.30
2022-07-28T15:25:15.123Z,26.20
2022-07-28T15:30:16.953Z,26.10
2022-07-28T15:35:20.335Z,26.10
2022-07-28T15:40:22.535Z,26.00
2022-07-28T15:45:24.575Z,25.90
2022-07-28T15:50:26.601Z,25.90
2022-07-28T15:55:28.501Z,25.90
2022-07-28T16:00:30.363Z,25.80
2022-07-28T16:05:32.763Z,25.80
2022-07-28T16:10:38.907Z,25.70
2022-07-28T16:15:40.968Z,25.60
2022-07-28T16:20:43.077Z,25.60
2022-07-28T16:25:45.265Z,25.50
2022-07-28T16:30:48.027Z,25.50
2022-07-28T16:35:49.948Z,25.40
2022-07-28T16:40:54.392Z,25.40
2022-07-28T16:45:56.301Z,25.30
2022-07-28T16:50:58.198Z,25.30
2022-07-28T16:56:00.169Z,25.30
2022-07-28T17:01:02.192Z,25.20
2022-07-28T17:06:04.543Z,25.20
2022-07-28T17:11:06.374Z,25.00
2022-07-28T17:16:08.324Z,24.90
2022-07-28T17:21:10.361Z,24.80
2022-07-28T17:27:32.505Z,24.70
2022-07-28T17:31:38.587Z,24.70
2022-07-28T17:36:41.994Z,24.60
2022-07-28T17:41:44.157Z,24.60
2022-07-28T17:46:47.389Z,24.50
2022-07-28T17:51:50.046Z,24.40
2022-07-28T17:56:52.486Z,24.40
2022-07-28T18:01:55.747Z,24.40
2022-07-28T18:06:57.634Z,24.30
2022-07-28T18:11:59.535Z,24.20
2022-07-28T18:17:01.562Z,24.10
2022-07-28T18:22:03.666Z,24.00
2022-07-28T18:27:05.802Z,23.70
2022-07-28T18:32:09.826Z,23.60
2022-07-28T18:37:15.670Z,23.50
2022-07-28T18:42:17.736Z,23.40
2022-07-28T18:47:20.305Z,23.20
2022-07-28T18:52:23.706Z,23.10
2022-07-28T18:57:25.953Z,22.90
2022-07-28T19:02:27.906Z,22.90
2022-07-28T19:07:30.510Z,22.80
2022-07-28T19:12:34.262Z,22.70
2022-07-28T19:17:36.961Z,22.70
2022-07-28T19:22:39.961Z,22.60
2022-07-28T19:27:42.289Z,22.60
2022-07-28T19:32:44.272Z,22.50
2022-07-28T19:37:46.305Z,22.40
2022-07-28T19:43:23.997Z,22.30
2022-07-28T19:48:25.950Z,22.40
2022-07-28T19:53:32.002Z,22.40
2022-07-28T19:58:34.275Z,22.30
2022-07-28T20:04:01.334Z,22.30
2022-07-28T20:08:57.998Z,22.20
2022-07-28T20:14:01.023Z,22.20
2022-07-28T20:19:02.938Z,22.20
2022-07-28T20:24:04.998Z,22.20
2022-07-28T20:29:07.572Z,22.20
2022-07-28T20:34:12.956Z,22.20
2022-07-28T20:39:34.737Z,22.30
2022-07-28T20:44:37.611Z,22.20
2022-07-28T20:49:39.999Z,22.30
2022-07-28T20:54:41.911Z,22.30
2022-07-28T20:59:43.836Z,22.30
2022-07-28T21:04:45.730Z,22.30
2022-07-28T21:09:47.796Z,22.30
2022-07-28T21:14:49.719Z,22.20
2022-07-28T21:19:53.211Z,22.30
2022-07-28T21:24:55.897Z,22.20
2022-07-28T21:34:58.581Z,22.20
2022-07-28T21:40:00.550Z,22.20
2022-07-28T21:45:02.506Z,22.20
2022-07-28T21:50:05.111Z,22.10
2022-07-28T21:55:08.626Z,22.10
2022-07-28T22:00:14.457Z,22.10
2022-07-28T22:05:16.475Z,22.10
2022-07-28T22:10:18.803Z,22.10
2022-07-28T22:15:20.629Z,22.10
2022-07-28T22:20:22.585Z,22.00
2022-07-28T22:25:24.669Z,22.00
2022-07-28T22:30:26.557Z,22.00
2022-07-28T22:35:28.379Z,22.00
2022-07-28T22:40:30.277Z,21.90
2022-07-28T22:45:50.599Z,21.60
2022-07-28T22:50:53.381Z,21.40
2022-07-28T22:55:55.357Z,21.10
2022-07-28T23:00:58.208Z,21.00
2022-07-28T23:06:01.618Z,20.80
2022-07-28T23:11:05.011Z,20.70
2022-07-28T23:16:11.755Z,20.60
2022-07-28T23:21:13.690Z,20.60
2022-07-28T23:26:15.509Z,20.40
2022-07-28T23:31:17.355Z,20.30
2022-07-28T23:36:26.673Z,20.30
2022-07-28T23:41:29.805Z,20.20
2022-07-28T23:46:31.782Z,20.20
2022-07-28T23:51:46.981Z,20.20
2022-07-28T23:56:55.746Z,20.10
